Monroe, Massachusetts
Current Conditions -  °F | °C
As of 12:52 AM on Wednesday 28 Jan 2015 (Local Time) from KAQW Reporting Station
Overcast Overcast  
Wind Chill: -3°   Ceiling: 9000
Heat Index: 10°   Visibility: 9mi
Dew Point:   Wind: 9mph
Humidity: 67%   Direction: 300°WNW
Pressure: 29.8"   Gusts: 23mph
Location:  42.7226°N, 72.9829°W
Report Text: KAQW 280552Z AUTO 30008G20KT 270V330 9SM OVC090 M12/M17 A2980 RMK AO2 SLP106 60000 T11221172 11122 21133 51008
Loading
Personal Weather Stations






























Interactive Weather Map New forecast layout! Learn more

10-Day Weather Forecast

Advertisements
Track Severe Weather on mobile